sensor_id;sensor_type;location;lat;lon;timestamp;temperature;humidity
82788;DHT22;72529;51.786;4.662;2024-03-22T00:01:45;13.74;80.40
82788;DHT22;72529;51.786;4.662;2024-03-22T00:04:12;13.77;80.19
82788;DHT22;72529;51.786;4.662;2024-03-22T00:06:38;13.73;80.25
82788;DHT22;72529;51.786;4.662;2024-03-22T00:09:04;13.72;80.37
82788;DHT22;72529;51.786;4.662;2024-03-22T00:11:29;13.72;80.22
82788;DHT22;72529;51.786;4.662;2024-03-22T00:13:55;13.65;80.61
82788;DHT22;72529;51.786;4.662;2024-03-22T00:16:20;13.67;80.65
82788;DHT22;72529;51.786;4.662;2024-03-22T00:18:46;13.62;80.69
82788;DHT22;72529;51.786;4.662;2024-03-22T00:21:11;13.60;80.53
82788;DHT22;72529;51.786;4.662;2024-03-22T00:23:36;13.58;80.71
82788;DHT22;72529;51.786;4.662;2024-03-22T00:26:02;13.60;80.58
82788;DHT22;72529;51.786;4.662;2024-03-22T00:28:27;13.59;80.46
82788;DHT22;72529;51.786;4.662;2024-03-22T00:30:53;13.58;80.43
82788;DHT22;72529;51.786;4.662;2024-03-22T00:33:18;13.53;80.45
82788;DHT22;72529;51.786;4.662;2024-03-22T00:35:46;13.52;80.59
82788;DHT22;72529;51.786;4.662;2024-03-22T00:38:11;13.53;80.61
82788;DHT22;72529;51.786;4.662;2024-03-22T00:40:37;13.55;80.70
82788;DHT22;72529;51.786;4.662;2024-03-22T00:43:02;13.53;80.47
82788;DHT22;72529;51.786;4.662;2024-03-22T00:45:28;13.45;80.57
82788;DHT22;72529;51.786;4.662;2024-03-22T00:47:53;13.36;80.62
82788;DHT22;72529;51.786;4.662;2024-03-22T00:50:19;13.39;80.35
82788;DHT22;72529;51.786;4.662;2024-03-22T00:52:44;13.34;80.15
82788;DHT22;72529;51.786;4.662;2024-03-22T00:55:09;13.26;80.26
82788;DHT22;72529;51.786;4.662;2024-03-22T00:57:35;13.30;80.15
82788;DHT22;72529;51.786;4.662;2024-03-22T01:00:00;13.28;79.98
82788;DHT22;72529;51.786;4.662;2024-03-22T01:02:26;13.26;80.06
82788;DHT22;72529;51.786;4.662;2024-03-22T01:04:51;13.22;80.05
82788;DHT22;72529;51.786;4.662;2024-03-22T01:07:16;13.22;80.13
82788;DHT22;72529;51.786;4.662;2024-03-22T01:09:42;13.19;79.97
82788;DHT22;72529;51.786;4.662;2024-03-22T01:12:09;13.08;79.49
82788;DHT22;72529;51.786;4.662;2024-03-22T01:14:35;12.95;79.55
82788;DHT22;72529;51.786;4.662;2024-03-22T01:17:01;12.87;79.92
82788;DHT22;72529;51.786;4.662;2024-03-22T01:19:26;12.87;79.77
82788;DHT22;72529;51.786;4.662;2024-03-22T01:21:51;12.81;79.83
82788;DHT22;72529;51.786;4.662;2024-03-22T01:24:17;12.73;79.76
82788;DHT22;72529;51.786;4.662;2024-03-22T01:26:42;12.61;80.23
82788;DHT22;72529;51.786;4.662;2024-03-22T01:29:08;12.54;80.60
82788;DHT22;72529;51.786;4.662;2024-03-22T01:31:33;12.47;80.81
82788;DHT22;72529;51.786;4.662;2024-03-22T01:33:58;12.38;81.05
82788;DHT22;72529;51.786;4.662;2024-03-22T01:36:24;12.41;81.22
82788;DHT22;72529;51.786;4.662;2024-03-22T01:38:49;12.32;81.44
82788;DHT22;72529;51.786;4.662;2024-03-22T01:41:15;12.32;81.42
82788;DHT22;72529;51.786;4.662;2024-03-22T01:43:40;12.26;81.47
82788;DHT22;72529;51.786;4.662;2024-03-22T01:46:07;12.24;81.80
82788;DHT22;72529;51.786;4.662;2024-03-22T01:48:34;12.19;81.99
82788;DHT22;72529;51.786;4.662;2024-03-22T01:50:59;12.14;81.82
82788;DHT22;72529;51.786;4.662;2024-03-22T01:53:25;12.12;81.98
82788;DHT22;72529;51.786;4.662;2024-03-22T01:55:51;12.04;81.93
82788;DHT22;72529;51.786;4.662;2024-03-22T01:58:16;11.99;82.10
82788;DHT22;72529;51.786;4.662;2024-03-22T02:00:42;11.89;82.03
82788;DHT22;72529;51.786;4.662;2024-03-22T02:03:08;11.85;82.07
82788;DHT22;72529;51.786;4.662;2024-03-22T02:05:33;11.85;82.11
82788;DHT22;72529;51.786;4.662;2024-03-22T02:07:59;11.87;81.96
82788;DHT22;72529;51.786;4.662;2024-03-22T02:10:24;11.93;81.62
82788;DHT22;72529;51.786;4.662;2024-03-22T02:12:49;11.85;81.80
82788;DHT22;72529;51.786;4.662;2024-03-22T02:15:15;11.87;81.78
82788;DHT22;72529;51.786;4.662;2024-03-22T02:17:40;11.87;81.77
82788;DHT22;72529;51.786;4.662;2024-03-22T02:20:06;11.85;81.99
82788;DHT22;72529;51.786;4.662;2024-03-22T02:22:33;11.89;81.89
82788;DHT22;72529;51.786;4.662;2024-03-22T02:24:58;11.83;81.90
82788;DHT22;72529;51.786;4.662;2024-03-22T02:27:25;11.85;81.90
82788;DHT22;72529;51.786;4.662;2024-03-22T02:29:51;11.83;82.17
82788;DHT22;72529;51.786;4.662;2024-03-22T02:32:16;11.82;82.23
82788;DHT22;72529;51.786;4.662;2024-03-22T02:34:42;11.89;82.18
82788;DHT22;72529;51.786;4.662;2024-03-22T02:37:07;11.90;81.96
82788;DHT22;72529;51.786;4.662;2024-03-22T02:39:32;11.92;81.94
82788;DHT22;72529;51.786;4.662;2024-03-22T02:41:58;11.89;82.19
82788;DHT22;72529;51.786;4.662;2024-03-22T02:44:23;11.99;81.73
82788;DHT22;72529;51.786;4.662;2024-03-22T02:46:49;11.93;81.93
82788;DHT22;72529;51.786;4.662;2024-03-22T02:49:14;11.97;81.87
82788;DHT22;72529;51.786;4.662;2024-03-22T02:51:39;11.97;81.73
82788;DHT22;72529;51.786;4.662;2024-03-22T02:54:05;11.92;81.52
82788;DHT22;72529;51.786;4.662;2024-03-22T02:56:31;11.90;81.66
82788;DHT22;72529;51.786;4.662;2024-03-22T02:58:56;11.92;81.71
82788;DHT22;72529;51.786;4.662;2024-03-22T03:01:22;11.96;81.74
82788;DHT22;72529;51.786;4.662;2024-03-22T03:03:47;11.94;81.63
82788;DHT22;72529;51.786;4.662;2024-03-22T03:06:13;11.97;81.80
82788;DHT22;72529;51.786;4.662;2024-03-22T03:08:39;11.99;81.70
82788;DHT22;72529;51.786;4.662;2024-03-22T03:11:05;11.99;81.70
82788;DHT22;72529;51.786;4.662;2024-03-22T03:13:30;12.03;81.75
82788;DHT22;72529;51.786;4.662;2024-03-22T03:15:56;12.00;81.90
82788;DHT22;72529;51.786;4.662;2024-03-22T03:18:22;12.12;81.78
82788;DHT22;72529;51.786;4.662;2024-03-22T03:20:47;12.16;81.25
82788;DHT22;72529;51.786;4.662;2024-03-22T03:23:13;12.13;81.26
82788;DHT22;72529;51.786;4.662;2024-03-22T03:25:38;12.09;80.99
82788;DHT22;72529;51.786;4.662;2024-03-22T03:28:04;12.04;81.34
82788;DHT22;72529;51.786;4.662;2024-03-22T03:30:29;12.07;81.41
82788;DHT22;72529;51.786;4.662;2024-03-22T03:32:54;12.09;81.13
82788;DHT22;72529;51.786;4.662;2024-03-22T03:35:20;12.13;81.17
82788;DHT22;72529;51.786;4.662;2024-03-22T03:37:45;12.26;80.38
82788;DHT22;72529;51.786;4.662;2024-03-22T03:40:11;12.26;80.17
82788;DHT22;72529;51.786;4.662;2024-03-22T03:42:36;12.10;80.45
82788;DHT22;72529;51.786;4.662;2024-03-22T03:45:02;12.09;80.50
82788;DHT22;72529;51.786;4.662;2024-03-22T03:47:27;12.02;81.15
82788;DHT22;72529;51.786;4.662;2024-03-22T03:49:53;11.97;81.18
82788;DHT22;72529;51.786;4.662;2024-03-22T03:52:18;11.99;81.18
82788;DHT22;72529;51.786;4.662;2024-03-22T03:54:44;11.96;81.37
82788;DHT22;72529;51.786;4.662;2024-03-22T03:57:09;11.92;81.31
82788;DHT22;72529;51.786;4.662;2024-03-22T03:59:34;11.86;81.41
82788;DHT22;72529;51.786;4.662;2024-03-22T04:02:00;11.83;81.40
82788;DHT22;72529;51.786;4.662;2024-03-22T04:04:25;11.83;81.30
82788;DHT22;72529;51.786;4.662;2024-03-22T04:06:51;11.85;81.41
82788;DHT22;72529;51.786;4.662;2024-03-22T04:09:16;11.89;80.91
82788;DHT22;72529;51.786;4.662;2024-03-22T04:11:42;11.81;81.25
82788;DHT22;72529;51.786;4.662;2024-03-22T04:14:07;11.78;81.40
82788;DHT22;72529;51.786;4.662;2024-03-22T04:16:32;11.71;81.59
82788;DHT22;72529;51.786;4.662;2024-03-22T04:18:58;11.72;81.47
82788;DHT22;72529;51.786;4.662;2024-03-22T04:21:23;11.68;81.66
82788;DHT22;72529;51.786;4.662;2024-03-22T04:23:49;11.63;81.93
82788;DHT22;72529;51.786;4.662;2024-03-22T04:26:15;11.72;81.78
82788;DHT22;72529;51.786;4.662;2024-03-22T04:28:40;11.69;81.73
82788;DHT22;72529;51.786;4.662;2024-03-22T04:31:07;11.68;81.73
82788;DHT22;72529;51.786;4.662;2024-03-22T04:33:37;11.65;82.06
82788;DHT22;72529;51.786;4.662;2024-03-22T04:36:03;11.61;81.94
82788;DHT22;72529;51.786;4.662;2024-03-22T04:38:29;11.61;82.08
82788;DHT22;72529;51.786;4.662;2024-03-22T04:40:56;11.58;82.16
82788;DHT22;72529;51.786;4.662;2024-03-22T04:43:23;11.71;82.06
82788;DHT22;72529;51.786;4.662;2024-03-22T04:45:49;11.69;81.76
82788;DHT22;72529;51.786;4.662;2024-03-22T04:48:18;11.71;81.95
82788;DHT22;72529;51.786;4.662;2024-03-22T04:50:45;11.66;81.97
82788;DHT22;72529;51.786;4.662;2024-03-22T04:53:10;11.63;82.26
82788;DHT22;72529;51.786;4.662;2024-03-22T04:55:36;11.63;82.21
82788;DHT22;72529;51.786;4.662;2024-03-22T04:58:03;11.71;81.85
82788;DHT22;72529;51.786;4.662;2024-03-22T05:00:28;11.68;82.06
82788;DHT22;72529;51.786;4.662;2024-03-22T05:02:54;11.65;81.97
82788;DHT22;72529;51.786;4.662;2024-03-22T05:05:20;11.66;82.00
82788;DHT22;72529;51.786;4.662;2024-03-22T05:07:45;11.61;82.18
82788;DHT22;72529;51.786;4.662;2024-03-22T05:10:12;11.62;82.04
82788;DHT22;72529;51.786;4.662;2024-03-22T05:12:37;11.57;82.44
82788;DHT22;72529;51.786;4.662;2024-03-22T05:15:03;11.63;82.30
82788;DHT22;72529;51.786;4.662;2024-03-22T05:17:29;11.55;82.44
82788;DHT22;72529;51.786;4.662;2024-03-22T05:19:58;11.62;82.20
82788;DHT22;72529;51.786;4.662;2024-03-22T05:22:23;11.59;82.28
82788;DHT22;72529;51.786;4.662;2024-03-22T05:24:48;11.57;82.39
82788;DHT22;72529;51.786;4.662;2024-03-22T05:27:14;11.62;82.30
82788;DHT22;72529;51.786;4.662;2024-03-22T05:29:39;11.55;82.51
82788;DHT22;72529;51.786;4.662;2024-03-22T05:32:05;11.58;82.37
82788;DHT22;72529;51.786;4.662;2024-03-22T05:34:31;11.55;82.35
82788;DHT22;72529;51.786;4.662;2024-03-22T05:36:56;11.51;82.22
82788;DHT22;72529;51.786;4.662;2024-03-22T05:39:21;11.54;82.38
82788;DHT22;72529;51.786;4.662;2024-03-22T05:41:47;11.51;82.22
82788;DHT22;72529;51.786;4.662;2024-03-22T05:44:12;11.49;82.34
82788;DHT22;72529;51.786;4.662;2024-03-22T05:46:38;11.54;82.25
82788;DHT22;72529;51.786;4.662;2024-03-22T05:49:03;11.52;82.19
82788;DHT22;72529;51.786;4.662;2024-03-22T05:51:29;11.49;82.29
82788;DHT22;72529;51.786;4.662;2024-03-22T05:53:56;11.52;82.28
82788;DHT22;72529;51.786;4.662;2024-03-22T05:56:22;11.49;82.31
82788;DHT22;72529;51.786;4.662;2024-03-22T05:58:48;11.57;82.25
82788;DHT22;72529;51.786;4.662;2024-03-22T06:01:13;11.57;82.31
82788;DHT22;72529;51.786;4.662;2024-03-22T06:03:39;11.57;82.29
82788;DHT22;72529;51.786;4.662;2024-03-22T06:06:04;11.58;82.31
82788;DHT22;72529;51.786;4.662;2024-03-22T06:08:30;11.55;82.33
82788;DHT22;72529;51.786;4.662;2024-03-22T06:11:01;11.65;81.94
82788;DHT22;72529;51.786;4.662;2024-03-22T06:13:27;11.63;81.93
82788;DHT22;72529;51.786;4.662;2024-03-22T06:15:53;11.69;81.91
82788;DHT22;72529;51.786;4.662;2024-03-22T06:18:18;11.66;81.85
82788;DHT22;72529;51.786;4.662;2024-03-22T06:20:44;11.66;81.62
82788;DHT22;72529;51.786;4.662;2024-03-22T06:23:09;11.63;81.97
82788;DHT22;72529;51.786;4.662;2024-03-22T06:25:35;11.62;82.21
82788;DHT22;72529;51.786;4.662;2024-03-22T06:28:01;11.65;82.19
82788;DHT22;72529;51.786;4.662;2024-03-22T06:30:26;11.78;81.85
82788;DHT22;72529;51.786;4.662;2024-03-22T06:32:53;11.72;81.52
82788;DHT22;72529;51.786;4.662;2024-03-22T06:35:19;11.75;81.65
82788;DHT22;72529;51.786;4.662;2024-03-22T06:37:44;11.75;81.78
82788;DHT22;72529;51.786;4.662;2024-03-22T06:40:11;11.85;81.64
82788;DHT22;72529;51.786;4.662;2024-03-22T06:42:36;11.89;81.34
82788;DHT22;72529;51.786;4.662;2024-03-22T06:45:02;11.89;81.14
82788;DHT22;72529;51.786;4.662;2024-03-22T06:47:28;11.90;81.35
82788;DHT22;72529;51.786;4.662;2024-03-22T06:49:53;11.92;81.45
82788;DHT22;72529;51.786;4.662;2024-03-22T06:52:19;11.93;81.03
82788;DHT22;72529;51.786;4.662;2024-03-22T06:54:45;12.00;81.29
82788;DHT22;72529;51.786;4.662;2024-03-22T06:57:11;12.02;80.77
82788;DHT22;72529;51.786;4.662;2024-03-22T06:59:36;12.06;80.73
82788;DHT22;72529;51.786;4.662;2024-03-22T07:02:02;12.09;80.78
82788;DHT22;72529;51.786;4.662;2024-03-22T07:04:27;12.12;80.67
82788;DHT22;72529;51.786;4.662;2024-03-22T07:06:53;12.12;80.23
82788;DHT22;72529;51.786;4.662;2024-03-22T07:09:18;12.03;80.22
82788;DHT22;72529;51.786;4.662;2024-03-22T07:11:44;12.04;81.04
82788;DHT22;72529;51.786;4.662;2024-03-22T07:14:09;12.12;80.56
82788;DHT22;72529;51.786;4.662;2024-03-22T07:16:35;12.16;80.46
82788;DHT22;72529;51.786;4.662;2024-03-22T07:19:02;12.23;80.23
82788;DHT22;72529;51.786;4.662;2024-03-22T07:21:29;12.23;79.87
82788;DHT22;72529;51.786;4.662;2024-03-22T07:23:54;12.26;79.94
82788;DHT22;72529;51.786;4.662;2024-03-22T07:26:20;12.27;79.71
82788;DHT22;72529;51.786;4.662;2024-03-22T07:28:45;12.29;80.07
82788;DHT22;72529;51.786;4.662;2024-03-22T07:31:10;12.37;79.29
82788;DHT22;72529;51.786;4.662;2024-03-22T07:33:36;12.41;79.31
82788;DHT22;72529;51.786;4.662;2024-03-22T07:36:05;12.34;79.79
82788;DHT22;72529;51.786;4.662;2024-03-22T07:38:31;12.37;79.34
82788;DHT22;72529;51.786;4.662;2024-03-22T07:40:56;12.41;79.64
82788;DHT22;72529;51.786;4.662;2024-03-22T07:43:22;12.33;79.27
82788;DHT22;72529;51.786;4.662;2024-03-22T07:45:47;12.30;79.81
82788;DHT22;72529;51.786;4.662;2024-03-22T07:48:13;12.33;79.75
82788;DHT22;72529;51.786;4.662;2024-03-22T07:50:38;12.24;79.86
82788;DHT22;72529;51.786;4.662;2024-03-22T07:53:04;12.27;79.81
82788;DHT22;72529;51.786;4.662;2024-03-22T07:55:29;12.26;79.18
82788;DHT22;72529;51.786;4.662;2024-03-22T07:57:55;12.19;79.90
82788;DHT22;72529;51.786;4.662;2024-03-22T08:00:21;12.30;79.72
82788;DHT22;72529;51.786;4.662;2024-03-22T08:02:47;12.27;79.28
82788;DHT22;72529;51.786;4.662;2024-03-22T08:05:12;12.26;79.43
82788;DHT22;72529;51.786;4.662;2024-03-22T08:07:37;12.40;79.86
82788;DHT22;72529;51.786;4.662;2024-03-22T08:10:03;12.46;79.17
82788;DHT22;72529;51.786;4.662;2024-03-22T08:12:29;12.46;78.80
82788;DHT22;72529;51.786;4.662;2024-03-22T08:14:55;12.47;78.73
82788;DHT22;72529;51.786;4.662;2024-03-22T08:17:21;12.44;78.75
82788;DHT22;72529;51.786;4.662;2024-03-22T08:19:46;12.51;78.27
82788;DHT22;72529;51.786;4.662;2024-03-22T08:22:11;12.41;78.73
82788;DHT22;72529;51.786;4.662;2024-03-22T08:24:37;12.43;79.17
82788;DHT22;72529;51.786;4.662;2024-03-22T08:27:03;12.41;79.14
82788;DHT22;72529;51.786;4.662;2024-03-22T08:29:29;12.36;78.59
82788;DHT22;72529;51.786;4.662;2024-03-22T08:31:54;12.36;78.81
82788;DHT22;72529;51.786;4.662;2024-03-22T08:34:21;12.40;78.46
82788;DHT22;72529;51.786;4.662;2024-03-22T08:36:47;12.40;78.86
82788;DHT22;72529;51.786;4.662;2024-03-22T08:39:12;12.50;78.66
82788;DHT22;72529;51.786;4.662;2024-03-22T08:41:38;12.47;78.62
82788;DHT22;72529;51.786;4.662;2024-03-22T08:44:03;12.47;78.35
82788;DHT22;72529;51.786;4.662;2024-03-22T08:46:29;12.37;78.63
82788;DHT22;72529;51.786;4.662;2024-03-22T08:48:54;12.44;78.78
82788;DHT22;72529;51.786;4.662;2024-03-22T08:51:21;12.36;78.35
82788;DHT22;72529;51.786;4.662;2024-03-22T08:53:46;12.40;78.47
82788;DHT22;72529;51.786;4.662;2024-03-22T08:56:12;12.38;78.67
82788;DHT22;72529;51.786;4.662;2024-03-22T08:58:37;12.34;79.01
82788;DHT22;72529;51.786;4.662;2024-03-22T09:01:03;12.41;78.64
82788;DHT22;72529;51.786;4.662;2024-03-22T09:03:28;12.30;78.82
82788;DHT22;72529;51.786;4.662;2024-03-22T09:05:55;12.30;79.72
82788;DHT22;72529;51.786;4.662;2024-03-22T09:08:21;12.29;79.61
82788;DHT22;72529;51.786;4.662;2024-03-22T09:10:49;12.23;80.38
82788;DHT22;72529;51.786;4.662;2024-03-22T09:13:14;12.24;80.40
82788;DHT22;72529;51.786;4.662;2024-03-22T09:15:40;12.26;80.81
82788;DHT22;72529;51.786;4.662;2024-03-22T09:18:05;12.13;80.90
82788;DHT22;72529;51.786;4.662;2024-03-22T09:20:31;12.00;81.75
82788;DHT22;72529;51.786;4.662;2024-03-22T09:22:57;11.97;82.26
82788;DHT22;72529;51.786;4.662;2024-03-22T09:25:25;11.94;82.75
82788;DHT22;72529;51.786;4.662;2024-03-22T09:27:51;11.86;82.84
82788;DHT22;72529;51.786;4.662;2024-03-22T09:30:16;11.83;83.35
82788;DHT22;72529;51.786;4.662;2024-03-22T09:32:41;11.79;84.00
82788;DHT22;72529;51.786;4.662;2024-03-22T09:35:08;11.79;83.95
82788;DHT22;72529;51.786;4.662;2024-03-22T09:37:34;11.76;84.64
82788;DHT22;72529;51.786;4.662;2024-03-22T09:39:59;11.63;84.86
82788;DHT22;72529;51.786;4.662;2024-03-22T09:42:26;11.63;85.55
82788;DHT22;72529;51.786;4.662;2024-03-22T09:44:54;11.71;85.39
82788;DHT22;72529;51.786;4.662;2024-03-22T09:47:20;11.76;85.33
82788;DHT22;72529;51.786;4.662;2024-03-22T09:49:46;11.76;85.37
82788;DHT22;72529;51.786;4.662;2024-03-22T09:52:15;11.78;85.84
82788;DHT22;72529;51.786;4.662;2024-03-22T09:54:42;11.79;86.05
82788;DHT22;72529;51.786;4.662;2024-03-22T09:57:13;11.86;85.75
82788;DHT22;72529;51.786;4.662;2024-03-22T09:59:39;11.81;85.73
82788;DHT22;72529;51.786;4.662;2024-03-22T10:02:09;11.76;86.05
82788;DHT22;72529;51.786;4.662;2024-03-22T10:04:35;11.79;85.76
82788;DHT22;72529;51.786;4.662;2024-03-22T10:07:02;11.71;86.18
82788;DHT22;72529;51.786;4.662;2024-03-22T10:09:32;11.79;85.80
82788;DHT22;72529;51.786;4.662;2024-03-22T10:11:58;11.73;86.03
82788;DHT22;72529;51.786;4.662;2024-03-22T10:14:23;11.69;86.08
82788;DHT22;72529;51.786;4.662;2024-03-22T10:16:55;11.68;86.40
82788;DHT22;72529;51.786;4.662;2024-03-22T10:19:21;11.65;86.22
82788;DHT22;72529;51.786;4.662;2024-03-22T10:21:48;11.69;86.47
82788;DHT22;72529;51.786;4.662;2024-03-22T10:24:24;11.73;86.04
82788;DHT22;72529;51.786;4.662;2024-03-22T10:26:50;11.71;86.65
82788;DHT22;72529;51.786;4.662;2024-03-22T10:29:15;11.81;86.14
82788;DHT22;72529;51.786;4.662;2024-03-22T10:31:42;11.75;85.95
82788;DHT22;72529;51.786;4.662;2024-03-22T10:34:11;11.69;86.50
82788;DHT22;72529;51.786;4.662;2024-03-22T10:36:39;11.81;86.44
82788;DHT22;72529;51.786;4.662;2024-03-22T10:39:05;11.81;86.09
82788;DHT22;72529;51.786;4.662;2024-03-22T10:41:31;11.76;86.03
82788;DHT22;72529;51.786;4.662;2024-03-22T10:43:57;11.79;86.55
82788;DHT22;72529;51.786;4.662;2024-03-22T10:46:29;11.83;85.96
82788;DHT22;72529;51.786;4.662;2024-03-22T10:48:57;11.83;86.25
82788;DHT22;72529;51.786;4.662;2024-03-22T10:51:25;11.83;86.11
82788;DHT22;72529;51.786;4.662;2024-03-22T10:53:54;11.81;86.19
82788;DHT22;72529;51.786;4.662;2024-03-22T10:56:23;11.82;86.30
82788;DHT22;72529;51.786;4.662;2024-03-22T10:58:49;11.89;86.12
82788;DHT22;72529;51.786;4.662;2024-03-22T11:01:25;11.89;86.14
82788;DHT22;72529;51.786;4.662;2024-03-22T11:03:51;11.83;86.25
82788;DHT22;72529;51.786;4.662;2024-03-22T11:06:19;11.81;86.30
82788;DHT22;72529;51.786;4.662;2024-03-22T11:08:50;11.81;86.53
82788;DHT22;72529;51.786;4.662;2024-03-22T11:11:18;11.86;86.90
82788;DHT22;72529;51.786;4.662;2024-03-22T11:13:47;11.90;86.56
82788;DHT22;72529;51.786;4.662;2024-03-22T11:16:14;11.90;86.72
82788;DHT22;72529;51.786;4.662;2024-03-22T11:18:40;11.93;86.58
82788;DHT22;72529;51.786;4.662;2024-03-22T11:21:06;11.92;86.26
82788;DHT22;72529;51.786;4.662;2024-03-22T11:23:35;11.87;86.58
82788;DHT22;72529;51.786;4.662;2024-03-22T11:26:01;11.87;86.62
82788;DHT22;72529;51.786;4.662;2024-03-22T11:28:27;11.93;86.34
82788;DHT22;72529;51.786;4.662;2024-03-22T11:30:52;11.87;86.52
82788;DHT22;72529;51.786;4.662;2024-03-22T11:33:18;11.81;86.61
82788;DHT22;72529;51.786;4.662;2024-03-22T11:35:44;11.85;86.93
82788;DHT22;72529;51.786;4.662;2024-03-22T11:38:10;11.85;87.20
82788;DHT22;72529;51.786;4.662;2024-03-22T11:40:36;11.79;86.93
82788;DHT22;72529;51.786;4.662;2024-03-22T11:43:03;11.79;87.26
82788;DHT22;72529;51.786;4.662;2024-03-22T11:45:29;11.78;87.52
82788;DHT22;72529;51.786;4.662;2024-03-22T11:48:02;11.87;87.23
82788;DHT22;72529;51.786;4.662;2024-03-22T11:50:27;11.93;87.25
82788;DHT22;72529;51.786;4.662;2024-03-22T11:52:53;11.89;86.95
82788;DHT22;72529;51.786;4.662;2024-03-22T11:55:18;11.76;86.67
82788;DHT22;72529;51.786;4.662;2024-03-22T11:57:50;11.72;87.24
82788;DHT22;72529;51.786;4.662;2024-03-22T12:00:18;11.66;86.70
82788;DHT22;72529;51.786;4.662;2024-03-22T12:02:45;11.55;86.88
82788;DHT22;72529;51.786;4.662;2024-03-22T12:05:10;11.58;87.07
82788;DHT22;72529;51.786;4.662;2024-03-22T12:07:37;11.65;86.13
82788;DHT22;72529;51.786;4.662;2024-03-22T12:10:03;11.58;84.75
82788;DHT22;72529;51.786;4.662;2024-03-22T12:12:29;11.46;84.81
82788;DHT22;72529;51.786;4.662;2024-03-22T12:14:55;11.46;85.56
82788;DHT22;72529;51.786;4.662;2024-03-22T12:17:21;11.54;86.18
82788;DHT22;72529;51.786;4.662;2024-03-22T12:19:46;11.66;85.79
82788;DHT22;72529;51.786;4.662;2024-03-22T12:22:12;11.68;84.85
82788;DHT22;72529;51.786;4.662;2024-03-22T12:24:38;11.49;84.51
82788;DHT22;72529;51.786;4.662;2024-03-22T12:27:03;11.49;85.21
82788;DHT22;72529;51.786;4.662;2024-03-22T12:29:32;11.52;85.17
82788;DHT22;72529;51.786;4.662;2024-03-22T12:31:58;11.52;85.34
82788;DHT22;72529;51.786;4.662;2024-03-22T12:34:26;11.49;85.44
82788;DHT22;72529;51.786;4.662;2024-03-22T12:36:51;11.52;86.15
82788;DHT22;72529;51.786;4.662;2024-03-22T12:39:16;11.65;86.13
82788;DHT22;72529;51.786;4.662;2024-03-22T12:41:42;11.68;85.19
82788;DHT22;72529;51.786;4.662;2024-03-22T12:44:07;11.76;85.09
82788;DHT22;72529;51.786;4.662;2024-03-22T12:46:33;11.81;85.17
82788;DHT22;72529;51.786;4.662;2024-03-22T12:48:58;11.82;84.97
82788;DHT22;72529;51.786;4.662;2024-03-22T12:51:24;11.83;84.56
82788;DHT22;72529;51.786;4.662;2024-03-22T12:53:49;11.79;84.43
82788;DHT22;72529;51.786;4.662;2024-03-22T12:56:14;11.90;84.77
82788;DHT22;72529;51.786;4.662;2024-03-22T12:58:40;11.83;84.55
82788;DHT22;72529;51.786;4.662;2024-03-22T13:01:05;11.82;84.79
82788;DHT22;72529;51.786;4.662;2024-03-22T13:03:34;11.83;84.85
82788;DHT22;72529;51.786;4.662;2024-03-22T13:05:59;11.83;85.16
82788;DHT22;72529;51.786;4.662;2024-03-22T13:08:25;11.82;85.36
82788;DHT22;72529;51.786;4.662;2024-03-22T13:10:50;11.86;85.66
82788;DHT22;72529;51.786;4.662;2024-03-22T13:13:17;11.85;85.72
82788;DHT22;72529;51.786;4.662;2024-03-22T13:15:43;11.87;85.79
82788;DHT22;72529;51.786;4.662;2024-03-22T13:18:09;11.85;85.89
82788;DHT22;72529;51.786;4.662;2024-03-22T13:20:35;11.83;86.29
82788;DHT22;72529;51.786;4.662;2024-03-22T13:23:01;11.85;86.50
82788;DHT22;72529;51.786;4.662;2024-03-22T13:25:27;11.86;86.81
82788;DHT22;72529;51.786;4.662;2024-03-22T13:27:53;11.90;86.74
82788;DHT22;72529;51.786;4.662;2024-03-22T13:30:18;11.90;86.96
82788;DHT22;72529;51.786;4.662;2024-03-22T13:32:43;11.94;86.46
82788;DHT22;72529;51.786;4.662;2024-03-22T13:35:10;11.87;86.89
82788;DHT22;72529;51.786;4.662;2024-03-22T13:37:35;11.85;86.05
82788;DHT22;72529;51.786;4.662;2024-03-22T13:40:01;11.83;86.83
82788;DHT22;72529;51.786;4.662;2024-03-22T13:42:26;11.87;86.55
82788;DHT22;72529;51.786;4.662;2024-03-22T13:44:52;11.79;86.07
82788;DHT22;72529;51.786;4.662;2024-03-22T13:47:18;11.75;86.31
82788;DHT22;72529;51.786;4.662;2024-03-22T13:49:44;11.73;85.88
82788;DHT22;72529;51.786;4.662;2024-03-22T13:52:13;11.69;86.05
82788;DHT22;72529;51.786;4.662;2024-03-22T13:54:38;11.69;86.69
82788;DHT22;72529;51.786;4.662;2024-03-22T13:57:04;11.65;86.83
82788;DHT22;72529;51.786;4.662;2024-03-22T13:59:29;11.72;86.66
82788;DHT22;72529;51.786;4.662;2024-03-22T14:01:56;11.69;84.96
82788;DHT22;72529;51.786;4.662;2024-03-22T14:04:24;11.62;83.45
82788;DHT22;72529;51.786;4.662;2024-03-22T14:06:52;11.45;83.61
82788;DHT22;72529;51.786;4.662;2024-03-22T14:09:18;11.42;83.97
82788;DHT22;72529;51.786;4.662;2024-03-22T14:11:43;11.41;83.99
82788;DHT22;72529;51.786;4.662;2024-03-22T14:14:09;11.41;84.35
82788;DHT22;72529;51.786;4.662;2024-03-22T14:16:39;11.51;84.57
82788;DHT22;72529;51.786;4.662;2024-03-22T14:19:04;11.55;84.42
82788;DHT22;72529;51.786;4.662;2024-03-22T14:21:30;11.54;84.29
82788;DHT22;72529;51.786;4.662;2024-03-22T14:23:55;11.49;83.83
82788;DHT22;72529;51.786;4.662;2024-03-22T14:26:21;11.46;84.46
82788;DHT22;72529;51.786;4.662;2024-03-22T14:28:46;11.42;84.75
82788;DHT22;72529;51.786;4.662;2024-03-22T14:31:13;11.41;84.85
82788;DHT22;72529;51.786;4.662;2024-03-22T14:33:39;11.45;85.44
82788;DHT22;72529;51.786;4.662;2024-03-22T14:36:06;11.55;85.57
82788;DHT22;72529;51.786;4.662;2024-03-22T14:38:32;11.66;85.27
82788;DHT22;72529;51.786;4.662;2024-03-22T14:40:58;11.68;85.15
82788;DHT22;72529;51.786;4.662;2024-03-22T14:43:25;11.69;85.28
82788;DHT22;72529;51.786;4.662;2024-03-22T14:45:51;11.68;85.38
82788;DHT22;72529;51.786;4.662;2024-03-22T14:48:19;11.62;85.35
82788;DHT22;72529;51.786;4.662;2024-03-22T14:50:46;11.58;85.43
82788;DHT22;72529;51.786;4.662;2024-03-22T14:53:11;11.63;85.53
82788;DHT22;72529;51.786;4.662;2024-03-22T14:55:37;11.46;85.34
82788;DHT22;72529;51.786;4.662;2024-03-22T14:58:03;11.45;84.92
82788;DHT22;72529;51.786;4.662;2024-03-22T15:00:29;11.38;85.19
82788;DHT22;72529;51.786;4.662;2024-03-22T15:02:55;11.41;85.50
82788;DHT22;72529;51.786;4.662;2024-03-22T15:05:20;11.42;85.13
82788;DHT22;72529;51.786;4.662;2024-03-22T15:07:46;11.48;85.01
82788;DHT22;72529;51.786;4.662;2024-03-22T15:10:11;11.51;84.98
82788;DHT22;72529;51.786;4.662;2024-03-22T15:12:36;11.51;85.35
82788;DHT22;72529;51.786;4.662;2024-03-22T15:15:03;11.58;84.86
82788;DHT22;72529;51.786;4.662;2024-03-22T15:17:29;11.66;84.90
82788;DHT22;72529;51.786;4.662;2024-03-22T15:19:55;11.66;84.54
82788;DHT22;72529;51.786;4.662;2024-03-22T15:22:22;11.65;84.27